aviador You're here:

RKSI Decoded Metar

CHAJANG NI in KOREA
Report Time2018-05-28 04:30:00
UTC Time2018-05-28 05:09:37
Flight Rules vfr VFR
Wind300° at 11 kt
W.Decomp.*RWY 33: 10.2 kt HW 4.1 kt LCW
RWY 34: 9.3 kt HW 5.8 kt LCW
W.Rank300° ranks 1
Current wind is above 300° avg. (8.0)
Visibility9999 m
Phenomena:N/A
Clouds:N/A
Expected CloudBase > 5,600 ft AGL from Temp-Dew spread
CeilingNone
Temp24°C (ISA +9)
Dew Point10°C (41% RH)
AAT20.1°C
QNH1010 hPa
Density Alt1,342 ft
Elevation23 ft
Report Wrong Elevation
Raw Report
RKSI 280430Z 30011KT CAVOK 24/10 Q1010 NOSIG=

Extra information for RKSI:More info

Metar Taf Metar & Taf Last 4 Metars F.Rules Stats Wind Profile Meteogram Temp Stats Airport Information Weather charts Add Link Nearby VenuesMetar ALERT Operation Metar Decoded Social comments